Time;durP1;ratioP1;P1;durP2;ratioP2;P2;SDS_P1;SDS_P2;PMS_P1;PMS_P2;Temp;Humidity;BMP_temperature;BMP_pressure;BME280_temperature;BME280_humidity;BME280_pressure;Samples;Min_cycle;Max_cycle;Signal;HPM_P1;HPM_P2
2021/11/26 00:01:25;;;;;;;35.72;16.85;;;;;;;1.83;100.00;99912.09;4940679;28;20050;-85
2021/11/26 00:03:52;;;;;;;35.83;16.90;;;;;;;1.83;100.00;99912.09;4952539;28;20049;-77
2021/11/26 00:06:18;;;;;;;34.70;14.70;;;;;;;1.82;100.00;99911.19;4954991;28;20232;-82
2021/11/26 00:08:45;;;;;;;35.47;15.75;;;;;;;1.86;100.00;99899.22;4973296;28;20754;-78
2021/11/26 00:11:11;;;;;;;33.38;16.55;;;;;;;1.89;100.00;99904.41;4955386;28;20051;-83
2021/11/26 00:13:40;;;;;;;33.45;16.17;;;;;;;1.91;100.00;99895.84;4933362;28;20073;-80
2021/11/26 00:16:14;;;;;;;31.42;16.30;;;;;;;1.93;100.00;99893.28;4947090;28;20764;-78
2021/11/26 00:18:43;;;;;;;34.55;15.15;;;;;;;1.93;100.00;99889.00;4958281;28;20057;-83
2021/11/26 00:21:11;;;;;;;39.88;16.58;;;;;;;1.92;100.00;99887.25;4959184;28;20045;-85
2021/11/26 00:23:38;;;;;;;32.88;15.30;;;;;;;1.94;100.00;99888.16;4968739;28;20043;-78
2021/11/26 00:26:04;;;;;;;31.23;14.50;;;;;;;1.93;100.00;99881.25;4972079;28;20047;-78
2021/11/26 00:28:31;;;;;;;30.20;15.38;;;;;;;1.89;100.00;99887.25;4956200;28;20057;-78
2021/11/26 00:30:58;;;;;;;31.73;15.02;;;;;;;1.89;100.00;99892.41;4952813;28;20076;-85
2021/11/26 00:33:25;;;;;;;32.17;15.90;;;;;;;1.89;100.00;99891.50;4951919;28;20057;-79
2021/11/26 00:35:52;;;;;;;29.13;14.40;;;;;;;1.88;100.00;99895.81;4959123;28;20042;-81
2021/11/26 00:38:19;;;;;;;28.95;15.38;;;;;;;1.87;100.00;99895.81;4954956;28;20495;-80
2021/11/26 00:40:46;;;;;;;34.90;15.20;;;;;;;1.82;100.00;99893.13;4961312;28;20046;-81
2021/11/26 00:43:22;;;;;;;41.95;14.75;;;;;;;1.81;100.00;99887.13;4959525;28;20173;-86
2021/11/26 00:45:48;;;;;;;34.70;14.95;;;;;;;1.84;100.00;99893.16;4960506;28;20050;-82
2021/11/26 00:48:15;;;;;;;36.10;15.38;;;;;;;1.84;100.00;99872.50;4961145;28;20050;-79
2021/11/26 00:50:43;;;;;;;34.60;15.27;;;;;;;1.79;100.00;99875.91;4972174;28;20049;-83
2021/11/26 00:53:09;;;;;;;34.88;14.98;;;;;;;1.75;100.00;99860.38;4957937;28;21405;-83
2021/11/26 00:55:36;;;;;;;39.83;15.73;;;;;;;1.72;100.00;99868.94;4959049;28;20059;-84
2021/11/26 00:58:03;;;;;;;34.35;13.85;;;;;;;1.66;100.00;99855.94;4971924;28;20164;-83
2021/11/26 01:00:31;;;;;;;30.02;14.23;;;;;;;1.62;100.00;99857.59;4945209;28;20100;-81
2021/11/26 01:02:58;;;;;;;35.28;14.80;;;;;;;1.65;100.00;99862.78;4965062;28;21370;-80
2021/11/26 01:05:25;;;;;;;30.50;14.65;;;;;;;1.65;100.00;99852.47;4982770;28;20908;-77
2021/11/26 01:07:52;;;;;;;32.58;14.15;;;;;;;1.68;100.00;99853.38;4977168;28;20666;-81
2021/11/26 01:10:22;;;;;;;33.00;16.75;;;;;;;1.67;100.00;99849.06;4972535;28;20346;-80
2021/11/26 01:12:49;;;;;;;33.80;14.70;;;;;;;1.62;100.00;99842.13;4960273;28;20042;-80
2021/11/26 01:15:20;;;;;;;35.78;14.25;;;;;;;1.60;100.00;99838.66;4975720;28;20140;-82
2021/11/26 01:17:48;;;;;;;36.08;16.20;;;;;;;1.62;100.00;99836.09;4967394;28;20129;-78
2021/11/26 01:20:20;;;;;;;34.88;14.77;;;;;;;1.66;100.00;99827.56;4962022;28;20076;-82
2021/11/26 01:22:47;;;;;;;33.85;13.65;;;;;;;1.70;100.00;99831.06;4955725;28;20050;-84
2021/11/26 01:25:15;;;;;;;33.03;13.55;;;;;;;1.71;100.00;99822.44;4963514;28;20141;-80
2021/11/26 01:27:43;;;;;;;34.22;14.85;;;;;;;1.72;100.00;99819.91;4960073;28;20485;-85
2021/11/26 01:30:21;;;;;;;34.00;16.20;;;;;;;1.70;100.00;99815.56;4948286;28;20120;-84
2021/11/26 01:32:48;;;;;;;30.00;13.27;;;;;;;1.70;100.00;99811.28;4956454;28;20607;-78
2021/11/26 01:35:15;;;;;;;27.80;14.18;;;;;;;1.72;100.00;99806.13;4952313;28;20078;-83
2021/11/26 01:37:41;;;;;;;30.00;13.80;;;;;;;1.71;100.00;99801.81;4944657;28;20092;-85
2021/11/26 01:40:11;;;;;;;34.88;14.75;;;;;;;1.76;100.00;99795.00;4958385;28;20578;-81
2021/11/26 01:42:39;;;;;;;29.15;14.85;;;;;;;1.79;100.00;99792.47;4969626;28;20445;-79
2021/11/26 01:45:07;;;;;;;35.97;14.20;;;;;;;1.80;100.00;99800.22;4953696;28;21149;-85
2021/11/26 01:47:36;;;;;;;36.83;14.05;;;;;;;1.83;100.00;99778.75;4961340;28;20042;-83
2021/11/26 01:50:07;;;;;;;33.90;12.70;;;;;;;1.84;100.00;99780.50;4959788;28;20057;-79
2021/11/26 01:52:35;;;;;;;38.67;14.82;;;;;;;1.79;100.00;99780.41;4941825;28;20517;-83
2021/11/26 01:55:05;;;;;;;30.35;14.18;;;;;;;1.77;100.00;99776.09;4959345;28;20049;-79
2021/11/26 01:57:32;;;;;;;30.92;15.10;;;;;;;1.74;100.00;99771.75;4966354;28;20053;-81
2021/11/26 01:59:59;;;;;;;32.20;14.25;;;;;;;1.74;100.00;99776.91;4959355;28;21335;-83
2021/11/26 02:02:25;;;;;;;32.80;15.13;;;;;;;1.72;100.00;99767.41;4958008;28;20429;-82
2021/11/26 02:04:53;;;;;;;31.77;13.93;;;;;;;1.69;100.00;99762.22;4947904;28;20048;-81
2021/11/26 02:07:19;;;;;;;32.17;14.65;;;;;;;1.66;100.00;99755.31;4954899;28;20042;-85
2021/11/26 02:09:46;;;;;;;26.30;13.95;;;;;;;1.67;100.00;99762.22;4955300;28;20256;-79
2021/11/26 02:12:12;;;;;;;32.83;15.27;;;;;;;1.60;100.00;99757.81;4951448;28;20051;-83
2021/11/26 02:14:39;;;;;;;37.25;15.75;;;;;;;1.62;100.00;99753.56;4950800;28;20042;-78
2021/11/26 02:17:06;;;;;;;28.70;13.63;;;;;;;1.60;100.00;99748.38;4953178;28;20131;-85
2021/11/26 02:19:33;;;;;;;30.25;15.20;;;;;;;1.59;100.00;99738.00;4960272;28;20122;-79
2021/11/26 02:21:59;;;;;;;39.55;16.70;;;;;;;1.55;100.00;99726.81;4962840;28;20050;-82
2021/11/26 02:24:32;;;;;;;34.30;15.00;;;;;;;1.57;100.00;99724.25;4976569;28;20520;-80
2021/11/26 02:26:59;;;;;;;31.58;15.15;;;;;;;1.58;100.00;99723.41;4962146;28;20042;-80
2021/11/26 02:29:26;;;;;;;32.80;15.25;;;;;;;1.61;100.00;99723.44;4945884;28;20516;-84
2021/11/26 02:31:52;;;;;;;31.33;14.10;;;;;;;1.65;100.00;99717.47;4960336;28;20046;-82
2021/11/26 02:34:19;;;;;;;37.10;14.77;;;;;;;1.64;100.00;99713.13;4963452;28;20053;-83
2021/11/26 02:36:46;;;;;;;37.63;14.82;;;;;;;1.63;100.00;99712.28;4950936;28;20120;-78
2021/11/26 02:39:12;;;;;;;36.08;12.88;;;;;;;1.61;100.00;99706.22;4959563;28;20050;-81
2021/11/26 02:41:47;;;;;;;32.88;14.63;;;;;;;1.59;100.00;99709.63;4974038;28;20063;-79
2021/11/26 02:44:13;;;;;;;33.75;15.00;;;;;;;1.58;100.00;99695.88;4960954;28;20050;-81
2021/11/26 02:46:40;;;;;;;34.80;15.50;;;;;;;1.58;100.00;99693.31;4960069;28;20038;-83
2021/11/26 02:49:07;;;;;;;35.63;13.50;;;;;;;1.56;100.00;99694.13;4945170;28;20057;-79
2021/11/26 02:51:35;;;;;;;28.35;15.43;;;;;;;1.55;100.00;99694.97;4961362;28;20055;-84
2021/11/26 02:54:03;;;;;;;40.80;15.05;;;;;;;1.57;100.00;99693.28;4973232;28;20140;-85
2021/11/26 02:56:30;;;;;;;24.00;12.88;;;;;;;1.61;100.00;99689.91;4958216;28;20413;-86
2021/11/26 02:58:57;;;;;;;33.60;12.25;;;;;;;1.68;100.00;99691.69;4959032;28;20050;-85
2021/11/26 03:01:24;;;;;;;35.00;14.23;;;;;;;1.76;100.00;99681.47;4953337;28;20058;-79
2021/11/26 03:03:50;;;;;;;33.75;14.23;;;;;;;1.82;100.00;99678.94;4956807;28;20062;-78
2021/11/26 03:06:17;;;;;;;25.88;13.57;;;;;;;1.86;100.00;99669.53;4955810;28;20576;-82
2021/11/26 03:08:44;;;;;;;27.63;11.63;;;;;;;1.89;100.00;99665.28;4948297;28;20177;-85
2021/11/26 03:11:10;;;;;;;27.40;12.75;;;;;;;1.94;100.00;99663.63;4955194;28;20054;-84
2021/11/26 03:13:37;;;;;;;32.45;13.88;;;;;;;2.03;100.00;99660.22;4947708;28;20061;-83
2021/11/26 03:16:04;;;;;;;32.30;15.27;;;;;;;2.11;100.00;99650.88;4958081;28;20039;-78
2021/11/26 03:18:31;;;;;;;34.75;12.45;;;;;;;2.18;100.00;99661.22;4947368;28;20058;-82
2021/11/26 03:20:58;;;;;;;31.30;14.40;;;;;;;2.24;100.00;99653.53;4955839;28;20065;-81
2021/11/26 03:23:25;;;;;;;28.13;14.23;;;;;;;2.30;100.00;99654.47;4956273;28;20108;-80
2021/11/26 03:25:52;;;;;;;26.88;12.05;;;;;;;2.38;100.00;99654.53;4955944;28;20085;-80
2021/11/26 03:28:22;;;;;;;40.65;14.23;;;;;;;2.41;100.00;99644.22;4927911;28;20074;-78
2021/11/26 03:30:49;;;;;;;28.67;12.88;;;;;;;2.49;100.00;99641.72;4926651;28;20579;-79
2021/11/26 03:33:16;;;;;;;25.38;11.70;;;;;;;2.54;100.00;99642.59;4951529;28;20383;-80
2021/11/26 03:35:42;;;;;;;29.80;12.55;;;;;;;2.59;100.00;99630.56;4934040;28;20185;-81
2021/11/26 03:38:09;;;;;;;26.58;11.90;;;;;;;2.63;100.00;99623.72;4924679;28;20061;-81
2021/11/26 03:40:36;;;;;;;41.42;13.10;;;;;;;2.64;100.00;99626.28;4936785;28;20050;-82
2021/11/26 03:43:06;;;;;;;25.70;11.38;;;;;;;2.67;100.00;99627.19;4939479;28;20047;-87
2021/11/26 03:45:33;;;;;;;31.20;11.75;;;;;;;2.68;100.00;99618.59;4934195;28;20370;-80
2021/11/26 03:48:00;;;;;;;24.15;11.23;;;;;;;2.69;100.00;99618.59;4941279;28;20138;-81
2021/11/26 03:50:28;;;;;;;25.15;11.57;;;;;;;2.73;100.00;99609.13;4924396;28;20058;-82
2021/11/26 03:52:55;;;;;;;28.67;10.52;;;;;;;2.77;100.00;99603.97;4935368;28;20050;-81
2021/11/26 03:55:27;;;;;;;23.92;9.45;;;;;;;2.81;100.00;99608.31;4951059;28;20055;-85
2021/11/26 03:57:55;;;;;;;20.58;9.57;;;;;;;2.84;100.00;99609.19;4951747;28;20095;-87
2021/11/26 04:00:21;;;;;;;25.10;10.90;;;;;;;2.88;100.00;99598.91;4939870;28;20050;-81
2021/11/26 04:02:50;;;;;;;23.23;10.55;;;;;;;2.91;100.00;99595.47;4920806;28;20059;-81
2021/11/26 04:05:18;;;;;;;28.77;11.25;;;;;;;2.94;100.00;99588.56;4925300;28;20498;-80
2021/11/26 04:07:45;;;;;;;25.70;9.75;;;;;;;3.00;100.00;99598.09;4941588;28;20051;-81
2021/11/26 04:10:13;;;;;;;28.40;10.82;;;;;;;3.04;100.00;99589.47;4936538;28;20719;-80
2021/11/26 04:12:41;;;;;;;23.25;9.32;;;;;;;3.09;100.00;99586.91;4941992;28;20045;-82
2021/11/26 04:15:18;;;;;;;24.17;10.45;;;;;;;3.13;100.00;99583.50;4959605;28;20050;-80
2021/11/26 04:17:48;;;;;;;28.85;11.20;;;;;;;3.17;100.00;99584.34;4934726;28;20046;-79
2021/11/26 04:20:16;;;;;;;26.35;10.65;;;;;;;3.20;100.00;99581.78;4939570;28;20051;-79
2021/11/26 04:22:43;;;;;;;26.17;10.00;;;;;;;3.23;100.00;99574.88;4931382;28;20054;-82
2021/11/26 04:25:13;;;;;;;26.65;10.43;;;;;;;3.26;100.00;99567.16;4950606;28;20046;-83
2021/11/26 04:27:42;;;;;;;25.50;9.85;;;;;;;3.28;100.00;99562.84;4945168;28;20062;-85
2021/11/26 04:30:11;;;;;;;24.70;11.77;;;;;;;3.30;99.92;99555.09;4958850;28;20153;-81
2021/11/26 04:32:38;;;;;;;31.67;14.77;;;;;;;3.30;99.50;99548.19;4952362;28;20057;-79
2021/11/26 04:35:09;;;;;;;32.13;12.07;;;;;;;3.28;99.33;99542.16;4939810;28;20989;-81
2021/11/26 04:37:36;;;;;;;34.70;14.05;;;;;;;3.29;98.94;99541.28;4953071;28;20038;-80
2021/11/26 04:40:05;;;;;;;33.35;12.68;;;;;;;3.28;99.42;99534.38;4956534;28;20073;-82
2021/11/26 04:42:32;;;;;;;32.78;11.75;;;;;;;3.29;99.37;99530.09;4956051;28;20136;-82
2021/11/26 04:45:14;;;;;;;32.22;12.25;;;;;;;3.31;99.82;99537.00;4963438;28;20208;-85
2021/11/26 04:47:41;;;;;;;37.50;14.68;;;;;;;3.32;99.03;99532.66;4955916;28;20497;-79
2021/11/26 04:50:10;;;;;;;33.58;12.77;;;;;;;3.31;99.15;99523.19;4944802;28;20046;-81
2021/11/26 04:52:36;;;;;;;35.95;14.23;;;;;;;3.31;99.71;99524.06;4956781;28;20050;-86
2021/11/26 04:55:06;;;;;;;30.63;12.32;;;;;;;3.33;99.31;99521.47;4937641;28;21218;-81
2021/11/26 04:57:32;;;;;;;39.08;14.95;;;;;;;3.31;98.88;99516.31;4975663;28;20070;-85
2021/11/26 05:00:00;;;;;;;35.83;14.65;;;;;;;3.30;100.00;99513.72;4955496;28;20051;-86
2021/11/26 05:02:27;;;;;;;39.17;14.30;;;;;;;3.29;100.00;99507.66;4943228;28;20047;-82
2021/11/26 05:04:54;;;;;;;33.78;15.95;;;;;;;3.32;99.72;99501.63;4963297;28;20042;-84
2021/11/26 05:07:23;;;;;;;44.40;17.98;;;;;;;3.31;99.75;99494.72;4957487;28;20045;-80
2021/11/26 05:09:49;;;;;;;47.00;18.90;;;;;;;3.30;99.73;99504.22;4959274;28;20054;-88
2021/11/26 05:12:19;;;;;;;38.05;18.25;;;;;;;3.31;100.00;99489.56;4956977;28;20050;-82
2021/11/26 05:14:46;;;;;;;48.40;20.02;;;;;;;3.31;99.96;99484.38;4958935;28;20066;-86
2021/11/26 05:17:12;;;;;;;39.85;19.08;;;;;;;3.30;100.00;99486.13;4976050;28;20404;-79
2021/11/26 05:19:39;;;;;;;50.47;18.55;;;;;;;3.31;100.00;99481.78;4976173;28;20147;-82
2021/11/26 05:22:06;;;;;;;42.05;19.25;;;;;;;3.29;100.00;99473.19;4963574;28;20654;-81
2021/11/26 05:24:32;;;;;;;49.30;19.45;;;;;;;3.26;100.00;99476.63;4988798;28;20050;-80
2021/11/26 05:26:59;;;;;;;45.30;20.38;;;;;;;3.25;100.00;99468.88;4982322;28;20047;-82
2021/11/26 05:29:26;;;;;;;42.60;19.42;;;;;;;3.24;100.00;99465.41;4986341;28;20460;-84
2021/11/26 05:31:52;;;;;;;45.05;19.75;;;;;;;3.28;100.00;99456.78;4972232;28;20133;-79
2021/11/26 05:34:19;;;;;;;53.42;20.48;;;;;;;3.28;99.90;99451.63;4986591;28;21198;-86
2021/11/26 05:36:45;;;;;;;43.95;19.45;;;;;;;3.29;100.00;99440.41;4968471;28;20041;-79
2021/11/26 05:39:12;;;;;;;37.05;17.08;;;;;;;3.32;100.00;99436.97;4982381;28;20053;-83
2021/11/26 05:41:39;;;;;;;40.25;17.38;;;;;;;3.33;100.00;99432.69;4988466;28;20034;-81
2021/11/26 05:44:06;;;;;;;48.75;18.38;;;;;;;3.32;99.69;99431.78;4998478;28;20052;-86
2021/11/26 05:46:32;;;;;;;43.47;17.05;;;;;;;3.34;99.94;99424.03;4982630;28;20063;-83
2021/11/26 05:48:59;;;;;;;41.00;17.17;;;;;;;3.37;99.32;99430.06;4968703;28;20047;-82
2021/11/26 05:51:26;;;;;;;35.03;16.50;;;;;;;3.42;99.28;99428.34;4972462;28;20050;-84
2021/11/26 05:53:53;;;;;;;42.67;17.50;;;;;;;3.47;98.67;99423.19;4985036;28;20050;-79
2021/11/26 05:56:20;;;;;;;41.17;15.90;;;;;;;3.50;98.61;99423.19;4963931;28;20167;-84
2021/11/26 05:58:46;;;;;;;37.17;15.15;;;;;;;3.53;98.28;99419.75;4980819;28;20780;-84
2021/11/26 06:01:13;;;;;;;37.30;16.95;;;;;;;3.55;97.80;99415.44;4975416;28;20584;-80
2021/11/26 06:03:40;;;;;;;38.60;16.42;;;;;;;3.55;97.72;99408.53;4960054;28;20074;-82
2021/11/26 06:06:07;;;;;;;36.53;16.63;;;;;;;3.58;98.13;99405.91;4965861;28;20046;-78
2021/11/26 06:08:34;;;;;;;34.45;14.38;;;;;;;3.58;97.82;99399.91;4960672;28;20062;-84
2021/11/26 06:11:02;;;;;;;39.30;16.30;;;;;;;3.59;97.74;99406.81;4962298;28;20050;-84
2021/11/26 06:13:28;;;;;;;35.80;14.60;;;;;;;3.60;98.04;99409.38;4965900;28;20084;-85
2021/11/26 06:15:55;;;;;;;34.33;14.30;;;;;;;3.62;97.74;99406.78;4962808;28;20058;-84
2021/11/26 06:18:21;;;;;;;40.05;15.52;;;;;;;3.62;97.37;99397.31;4985265;28;20038;-78
2021/11/26 06:20:48;;;;;;;37.22;16.10;;;;;;;3.62;97.56;99397.31;4973855;28;20047;-86
2021/11/26 06:23:17;;;;;;;36.42;15.82;;;;;;;3.65;97.61;99396.44;4985102;28;20057;-85
2021/11/26 06:25:46;;;;;;;30.48;15.00;;;;;;;3.66;98.04;99384.38;4980680;28;20066;-85
2021/11/26 06:28:13;;;;;;;32.85;15.82;;;;;;;3.69;97.45;99386.94;4996567;28;20725;-85
2021/11/26 06:30:40;;;;;;;31.90;13.70;;;;;;;3.70;97.56;99384.34;4978209;28;20050;-83
2021/11/26 06:33:07;;;;;;;43.20;14.82;;;;;;;3.72;97.18;99380.03;4980597;28;20041;-81
2021/11/26 06:35:33;;;;;;;33.38;18.10;;;;;;;3.73;97.48;99371.41;5002244;28;20047;-78
2021/11/26 06:38:00;;;;;;;38.42;16.83;;;;;;;3.75;97.45;99367.06;4986314;28;21448;-80
2021/11/26 06:40:27;;;;;;;33.70;15.10;;;;;;;3.76;97.44;99374.00;4964552;28;20531;-82
2021/11/26 06:42:54;;;;;;;29.30;13.13;;;;;;;3.76;97.20;99365.38;4985680;28;20046;-85
2021/11/26 06:45:21;;;;;;;29.33;14.43;;;;;;;3.76;97.05;99370.53;4980263;28;20065;-80
2021/11/26 06:47:48;;;;;;;25.83;13.10;;;;;;;3.76;97.36;99362.78;4979723;28;20042;-83
2021/11/26 06:50:17;;;;;;;33.53;13.63;;;;;;;3.76;97.19;99368.81;4979443;28;20064;-83
2021/11/26 06:52:44;;;;;;;36.38;15.27;;;;;;;3.77;97.21;99360.19;4983335;28;20046;-83
2021/11/26 06:55:12;;;;;;;29.50;13.43;;;;;;;3.76;97.45;99366.22;4999058;28;20057;-83
2021/11/26 06:57:41;;;;;;;27.55;14.13;;;;;;;3.79;97.11;99362.75;4978612;28;20038;-80
2021/11/26 07:00:16;;;;;;;27.10;12.63;;;;;;;3.81;96.38;99358.47;4997203;28;20057;-77
2021/11/26 07:02:43;;;;;;;34.03;16.13;;;;;;;3.80;96.81;99359.31;4956953;28;20057;-79
2021/11/26 07:05:12;;;;;;;30.33;13.85;;;;;;;3.79;96.71;99358.47;4996857;28;20062;-80
2021/11/26 07:07:39;;;;;;;28.70;12.50;;;;;;;3.78;96.54;99356.75;4985655;28;20034;-85
2021/11/26 07:10:14;;;;;;;21.88;11.20;;;;;;;3.78;97.12;99350.69;4966281;28;20124;-86
2021/11/26 07:12:41;;;;;;;25.40;12.73;;;;;;;3.78;96.95;99341.22;4964732;28;20038;-84
2021/11/26 07:15:11;;;;;;;27.05;12.85;;;;;;;3.81;96.59;99342.94;4978973;28;20065;-82
2021/11/26 07:17:38;;;;;;;32.08;13.00;;;;;;;3.82;96.57;99336.88;4979160;28;20065;-81
2021/11/26 07:20:08;;;;;;;30.77;12.15;;;;;;;3.80;96.32;99342.03;4978324;28;20054;-84
2021/11/26 07:22:34;;;;;;;26.10;11.02;;;;;;;3.81;96.17;99337.75;4979195;28;20144;-83
2021/11/26 07:25:03;;;;;;;33.35;12.02;;;;;;;3.81;95.71;99335.16;4960296;28;22484;-85
2021/11/26 07:27:30;;;;;;;26.55;11.55;;;;;;;3.83;95.96;99333.41;4982975;28;20048;-79
2021/11/26 07:29:56;;;;;;;29.98;11.23;;;;;;;3.86;95.67;99329.94;4963524;28;20550;-85
2021/11/26 07:32:23;;;;;;;18.75;9.80;;;;;;;3.85;95.42;99323.94;4969153;28;20070;-84
2021/11/26 07:34:51;;;;;;;28.05;12.15;;;;;;;3.88;95.77;99323.06;4987288;28;20057;-85
2021/11/26 07:37:18;;;;;;;20.23;9.52;;;;;;;3.90;95.16;99314.41;4967680;28;20052;-81
2021/11/26 07:39:46;;;;;;;22.35;11.30;;;;;;;3.91;94.76;99317.84;4981890;28;20061;-80
2021/11/26 07:42:15;;;;;;;22.92;10.30;;;;;;;3.93;95.03;99311.81;4971932;28;20070;-83
2021/11/26 07:44:44;;;;;;;17.30;10.07;;;;;;;3.93;95.11;99309.22;4970850;28;20050;-80
2021/11/26 07:47:15;;;;;;;21.42;10.43;;;;;;;3.96;95.62;99311.81;4970228;28;20458;-84
2021/11/26 07:49:44;;;;;;;24.73;10.57;;;;;;;3.96;94.65;99309.22;4970420;28;20367;-86
2021/11/26 07:52:12;;;;;;;24.52;10.82;;;;;;;3.97;94.77;99305.75;4956214;28;20062;-82
2021/11/26 07:54:42;;;;;;;27.52;9.68;;;;;;;3.96;94.69;99300.56;4953069;28;23258;-81
2021/11/26 07:57:09;;;;;;;24.25;11.75;;;;;;;4.00;94.89;99299.69;4970659;28;20078;-80
2021/11/26 07:59:36;;;;;;;24.13;11.18;;;;;;;4.01;94.38;99300.56;4961010;28;20309;-87
2021/11/26 08:02:03;;;;;;;17.13;9.65;;;;;;;4.03;94.87;99291.94;4972193;28;20555;-80
2021/11/26 08:04:32;;;;;;;25.00;10.35;;;;;;;4.04;95.07;99285.91;4958233;28;20125;-80
2021/11/26 08:07:01;;;;;;;17.98;9.68;;;;;;;4.09;95.07;99288.44;4967574;28;20058;-84
2021/11/26 08:09:28;;;;;;;21.38;11.20;;;;;;;4.11;95.02;99281.53;4953860;28;20051;-82
2021/11/26 08:11:56;;;;;;;23.92;9.52;;;;;;;4.13;94.97;99278.06;4959185;28;20046;-79
2021/11/26 08:14:24;;;;;;;21.42;9.73;;;;;;;4.14;95.04;99282.38;4965584;28;21679;-80
2021/11/26 08:16:53;;;;;;;20.55;10.70;;;;;;;4.12;95.34;99270.31;4964448;28;20050;-85
2021/11/26 08:19:21;;;;;;;20.55;10.38;;;;;;;4.12;95.52;99268.59;4962818;28;20600;-80
2021/11/26 08:21:50;;;;;;;23.23;9.82;;;;;;;4.10;95.43;99269.47;4951260;28;20083;-80
2021/11/26 08:24:17;;;;;;;17.35;8.60;;;;;;;4.09;95.72;99268.59;4968166;28;20058;-80
2021/11/26 08:26:47;;;;;;;14.93;8.90;;;;;;;4.07;95.62;99266.88;4948120;28;20054;-82
2021/11/26 08:29:14;;;;;;;18.35;8.88;;;;;;;4.06;95.87;99259.97;4967581;28;20157;-82
2021/11/26 08:31:41;;;;;;;14.13;8.77;;;;;;;4.05;95.96;99261.69;4974494;28;20077;-82
2021/11/26 08:34:09;;;;;;;18.50;8.20;;;;;;;4.05;96.06;99258.25;4991043;28;20169;-81
2021/11/26 08:36:38;;;;;;;15.77;6.97;;;;;;;4.05;96.11;99255.66;5002615;28;22166;-86
2021/11/26 08:39:08;;;;;;;21.45;8.50;;;;;;;4.04;96.18;99241.88;4985990;28;20564;-79
2021/11/26 08:41:35;;;;;;;28.90;10.88;;;;;;;4.03;96.58;99245.31;4973182;28;20049;-80
2021/11/26 08:44:04;;;;;;;15.95;8.68;;;;;;;4.04;96.53;99239.28;4982942;28;20493;-83
2021/11/26 08:46:30;;;;;;;17.02;7.25;;;;;;;4.03;96.37;99237.56;4959997;28;20046;-82
2021/11/26 08:48:57;;;;;;;18.30;8.27;;;;;;;4.01;96.73;99233.25;4967752;28;20068;-85
2021/11/26 08:51:27;;;;;;;19.67;8.00;;;;;;;4.01;96.64;99230.66;4972596;28;20161;-87
2021/11/26 08:53:55;;;;;;;22.35;7.63;;;;;;;3.97;96.99;99220.31;4987355;28;20043;-87
2021/11/26 08:56:24;;;;;;;13.20;8.10;;;;;;;3.94;96.73;99222.91;4976023;28;20046;-84
2021/11/26 08:58:51;;;;;;;19.38;8.50;;;;;;;3.95;97.00;99223.75;4993964;28;20042;-86
2021/11/26 09:01:19;;;;;;;17.60;7.78;;;;;;;3.95;97.05;99219.47;5008902;28;20319;-85
2021/11/26 09:03:47;;;;;;;14.52;6.70;;;;;;;3.96;96.91;99220.31;5010692;28;20052;-81
2021/11/26 09:06:18;;;;;;;13.43;6.97;;;;;;;3.95;96.53;99218.59;5016892;28;20072;-86
2021/11/26 09:08:45;;;;;;;14.95;7.60;;;;;;;3.94;96.31;99217.75;5001827;28;20060;-86
2021/11/26 09:11:12;;;;;;;12.77;5.50;;;;;;;3.94;96.66;99222.06;5008008;28;20054;-80
2021/11/26 09:13:40;;;;;;;10.75;5.38;;;;;;;3.94;96.77;99222.91;5001097;28;20485;-82
2021/11/26 09:16:06;;;;;;;15.45;6.65;;;;;;;3.99;96.43;99215.13;4998319;28;20038;-84
2021/11/26 09:18:33;;;;;;;10.48;5.30;;;;;;;3.96;96.04;99205.66;5036276;28;20033;-85
2021/11/26 09:21:00;;;;;;;11.38;6.03;;;;;;;3.97;96.50;99202.19;5002912;28;20512;-79
2021/11/26 09:23:27;;;;;;;12.40;5.50;;;;;;;3.98;96.71;99206.50;4981385;28;20062;-78
2021/11/26 09:25:55;;;;;;;13.48;6.18;;;;;;;3.97;96.11;99207.34;4997417;28;20060;-83
2021/11/26 09:28:25;;;;;;;12.80;6.07;;;;;;;3.94;96.02;99207.38;4979894;28;20034;-79
2021/11/26 09:30:52;;;;;;;14.07;6.57;;;;;;;3.90;96.07;99199.66;4984727;28;20125;-82
2021/11/26 09:33:20;;;;;;;16.08;6.30;;;;;;;3.87;96.81;99202.25;4993904;28;20081;-81
2021/11/26 09:35:48;;;;;;;13.00;5.78;;;;;;;3.85;97.30;99194.50;4995288;28;20065;-80
2021/11/26 09:38:15;;;;;;;13.73;6.65;;;;;;;3.80;97.69;99188.47;4995650;28;20148;-82
2021/11/26 09:40:44;;;;;;;8.90;5.28;;;;;;;3.81;97.96;99196.22;4973030;28;20050;-82
2021/11/26 09:43:11;;;;;;;15.18;6.78;;;;;;;3.78;98.10;99187.59;4976200;28;20061;-82
2021/11/26 09:45:38;;;;;;;13.63;5.90;;;;;;;3.74;98.33;99171.25;4990021;28;20491;-83
2021/11/26 09:48:06;;;;;;;15.07;7.47;;;;;;;3.73;98.20;99179.00;4989706;28;20041;-78
2021/11/26 09:50:33;;;;;;;14.88;6.15;;;;;;;3.75;98.67;99180.72;4978019;28;20081;-79
2021/11/26 09:53:29;;;;;;;12.55;6.53;;;;;;;3.77;98.58;99173.81;4970749;28;20205;-82
2021/11/26 09:56:04;;;;;;;13.68;7.55;;;;;;;3.73;98.56;99169.53;4958221;28;20513;-82
2021/11/26 09:58:33;;;;;;;17.88;7.05;;;;;;;3.74;99.04;99170.38;4992028;28;20523;-79
2021/11/26 10:01:04;;;;;;;16.50;6.75;;;;;;;3.71;98.43;99167.81;4989531;28;20046;-80
2021/11/26 10:03:44;;;;;;;13.15;6.30;;;;;;;3.72;98.68;99164.38;4976561;28;20049;-82
2021/11/26 10:06:27;;;;;;;11.15;7.15;;;;;;;3.75;98.96;99154.00;4974200;28;21204;-81
2021/11/26 10:09:13;;;;;;;12.82;6.63;;;;;;;3.78;98.88;99157.44;4975243;28;20499;-84
2021/11/26 10:11:57;;;;;;;12.73;6.35;;;;;;;3.79;98.60;99147.94;4971058;28;20050;-86
2021/11/26 10:14:31;;;;;;;11.27;6.20;;;;;;;3.83;99.17;99141.84;4989658;28;20669;-85
2021/11/26 10:17:23;;;;;;;14.07;6.70;;;;;;;3.91;98.57;99140.09;5005128;28;20061;-84
2021/11/26 10:20:11;;;;;;;11.10;5.60;;;;;;;3.93;98.04;99125.41;4969631;28;20034;-82
2021/11/26 10:22:42;;;;;;;14.20;6.65;;;;;;;3.94;98.19;99127.13;4984583;28;20557;-82
2021/11/26 10:25:22;;;;;;;10.02;6.18;;;;;;;3.94;97.71;99121.94;4974641;28;20050;-80
2021/11/26 10:27:59;;;;;;;14.30;6.18;;;;;;;3.94;97.60;99113.34;4993395;28;20869;-83
2021/11/26 10:30:49;;;;;;;11.02;6.18;;;;;;;3.94;96.79;99108.16;5003728;28;20052;-82
2021/11/26 10:33:26;;;;;;;12.43;5.95;;;;;;;3.95;97.39;99102.09;4985950;28;20125;-81
2021/11/26 10:35:57;;;;;;;12.57;6.95;;;;;;;3.94;96.80;99098.66;5009745;28;20108;-87
2021/11/26 10:38:36;;;;;;;9.75;5.68;;;;;;;3.89;97.12;99087.47;4966396;28;20049;-85
2021/11/26 10:41:09;;;;;;;10.48;5.43;;;;;;;3.92;97.38;99089.16;4982994;28;20042;-84
2021/11/26 10:43:44;;;;;;;12.02;5.18;;;;;;;3.92;97.04;99084.00;4984972;28;20046;-87
2021/11/26 10:46:49;;;;;;;11.98;6.72;;;;;;;3.91;97.20;99082.25;4983293;28;20038;-83
2021/11/26 10:49:44;;;;;;;;;;;;;;;3.93;97.07;99076.22;4983051;28;20161;-82
2021/11/26 10:57:57;;;;;;;13.88;6.90;;;;;;;3.92;97.18;99050.34;4980768;28;20049;-81
2021/11/26 11:00:29;;;;;;;9.95;6.00;;;;;;;3.97;97.53;99051.16;4982575;28;20109;-84
2021/11/26 11:02:58;;;;;;;10.43;5.60;;;;;;;3.94;96.51;99054.63;4967331;28;20065;-84
2021/11/26 11:05:38;;;;;;;8.30;5.20;;;;;;;3.93;96.83;99044.28;4978820;28;20599;-89
2021/11/26 11:08:21;;;;;;;10.38;5.53;;;;;;;3.94;96.93;99046.03;4978339;28;20053;-84
2021/11/26 11:10:48;;;;;;;7.60;4.72;;;;;;;3.94;97.20;99035.66;4987818;28;20050;-80
2021/11/26 11:13:20;;;;;;;8.68;5.07;;;;;;;3.90;96.47;99027.06;4973166;28;20161;-78
2021/11/26 11:15:50;;;;;;;9.85;5.35;;;;;;;3.85;96.76;99028.81;4985925;28;20432;-83
2021/11/26 11:18:19;;;;;;;13.20;7.13;;;;;;;3.78;97.05;99027.13;5002394;28;20042;-80
2021/11/26 11:20:46;;;;;;;9.05;6.10;;;;;;;3.71;97.21;99026.31;4980165;28;20050;-84
2021/11/26 11:23:14;;;;;;;10.23;6.90;;;;;;;3.70;97.68;99024.59;5006387;28;20109;-81
2021/11/26 11:25:41;;;;;;;9.75;5.75;;;;;;;3.71;98.19;99012.53;4983437;28;20087;-84
2021/11/26 11:28:11;;;;;;;7.63;5.43;;;;;;;3.64;97.50;99015.16;4999644;28;20040;-80
2021/11/26 11:30:40;;;;;;;7.65;4.80;;;;;;;3.62;98.25;99013.47;4986028;28;20048;-79
2021/11/26 11:33:07;;;;;;;8.35;5.45;;;;;;;3.58;98.45;98999.69;4985428;28;20716;-81
2021/11/26 11:35:37;;;;;;;7.53;4.60;;;;;;;3.58;98.10;99002.25;5002006;28;20052;-82
2021/11/26 11:38:05;;;;;;;8.90;5.40;;;;;;;3.56;98.30;98996.25;4973836;28;20084;-82